sensor_id;sensor_type;location;lat;lon;timestamp;temperature;humidity
28524;DHT22;15734;50.904;6.922;2023-04-24T00:00:01;11.90;99.90
28524;DHT22;15734;50.904;6.922;2023-04-24T00:02:26;11.80;99.90
28524;DHT22;15734;50.904;6.922;2023-04-24T00:04:52;11.80;99.90
28524;DHT22;15734;50.904;6.922;2023-04-24T00:07:17;11.80;99.90
28524;DHT22;15734;50.904;6.922;2023-04-24T00:09:43;11.90;99.90
28524;DHT22;15734;50.904;6.922;2023-04-24T00:12:09;11.90;99.90
28524;DHT22;15734;50.904;6.922;2023-04-24T00:14:34;11.90;99.90
28524;DHT22;15734;50.904;6.922;2023-04-24T00:17:00;11.90;99.90
28524;DHT22;15734;50.904;6.922;2023-04-24T00:19:26;11.90;99.90
28524;DHT22;15734;50.904;6.922;2023-04-24T00:21:52;11.90;99.90
28524;DHT22;15734;50.904;6.922;2023-04-24T00:24:17;11.90;99.90
28524;DHT22;15734;50.904;6.922;2023-04-24T00:26:43;11.80;99.90
28524;DHT22;15734;50.904;6.922;2023-04-24T00:29:09;11.70;99.90
28524;DHT22;15734;50.904;6.922;2023-04-24T00:31:34;11.70;99.90
28524;DHT22;15734;50.904;6.922;2023-04-24T00:34:00;11.70;99.90
28524;DHT22;15734;50.904;6.922;2023-04-24T00:36:26;11.70;99.90
28524;DHT22;15734;50.904;6.922;2023-04-24T00:38:52;11.70;99.90
28524;DHT22;15734;50.904;6.922;2023-04-24T00:41:18;11.80;99.90
28524;DHT22;15734;50.904;6.922;2023-04-24T00:43:44;11.80;99.90
28524;DHT22;15734;50.904;6.922;2023-04-24T00:46:10;11.90;99.90
28524;DHT22;15734;50.904;6.922;2023-04-24T00:48:36;11.90;99.90
28524;DHT22;15734;50.904;6.922;2023-04-24T00:51:02;11.90;99.90
28524;DHT22;15734;50.904;6.922;2023-04-24T00:53:28;11.90;99.90
28524;DHT22;15734;50.904;6.922;2023-04-24T00:55:53;11.90;99.90
28524;DHT22;15734;50.904;6.922;2023-04-24T00:58:19;11.90;99.90
28524;DHT22;15734;50.904;6.922;2023-04-24T01:00:44;11.90;99.90
28524;DHT22;15734;50.904;6.922;2023-04-24T01:03:10;11.90;99.90
28524;DHT22;15734;50.904;6.922;2023-04-24T01:05:36;11.90;99.90
28524;DHT22;15734;50.904;6.922;2023-04-24T01:08:01;12.00;99.90
28524;DHT22;15734;50.904;6.922;2023-04-24T01:10:27;11.90;99.90
28524;DHT22;15734;50.904;6.922;2023-04-24T01:12:54;11.90;99.90
28524;DHT22;15734;50.904;6.922;2023-04-24T01:15:20;11.90;99.90
28524;DHT22;15734;50.904;6.922;2023-04-24T01:17:46;11.90;99.90
28524;DHT22;15734;50.904;6.922;2023-04-24T01:20:12;11.90;99.90
28524;DHT22;15734;50.904;6.922;2023-04-24T01:22:37;11.90;99.90
28524;DHT22;15734;50.904;6.922;2023-04-24T01:25:03;11.90;99.90
28524;DHT22;15734;50.904;6.922;2023-04-24T01:27:29;11.80;99.90
28524;DHT22;15734;50.904;6.922;2023-04-24T01:29:54;11.80;99.90
28524;DHT22;15734;50.904;6.922;2023-04-24T01:32:20;11.70;99.90
28524;DHT22;15734;50.904;6.922;2023-04-24T01:34:45;11.70;99.90
28524;DHT22;15734;50.904;6.922;2023-04-24T01:37:11;11.70;99.90
28524;DHT22;15734;50.904;6.922;2023-04-24T01:39:37;11.70;99.90
28524;DHT22;15734;50.904;6.922;2023-04-24T01:42:03;11.60;99.90
28524;DHT22;15734;50.904;6.922;2023-04-24T01:44:29;11.60;99.90
28524;DHT22;15734;50.904;6.922;2023-04-24T01:46:55;11.50;99.90
28524;DHT22;15734;50.904;6.922;2023-04-24T01:49:21;11.50;99.90
28524;DHT22;15734;50.904;6.922;2023-04-24T01:51:46;11.30;99.90
28524;DHT22;15734;50.904;6.922;2023-04-24T01:54:12;11.30;99.90
28524;DHT22;15734;50.904;6.922;2023-04-24T01:56:39;11.30;99.90
28524;DHT22;15734;50.904;6.922;2023-04-24T01:59:05;11.20;99.90
28524;DHT22;15734;50.904;6.922;2023-04-24T02:01:34;11.00;99.90
28524;DHT22;15734;50.904;6.922;2023-04-24T02:04:03;11.00;99.90
28524;DHT22;15734;50.904;6.922;2023-04-24T02:06:29;10.90;99.90
28524;DHT22;15734;50.904;6.922;2023-04-24T02:08:56;10.80;99.90
28524;DHT22;15734;50.904;6.922;2023-04-24T02:11:22;10.80;99.90
28524;DHT22;15734;50.904;6.922;2023-04-24T02:13:47;10.70;99.90
28524;DHT22;15734;50.904;6.922;2023-04-24T02:16:13;10.70;99.90
28524;DHT22;15734;50.904;6.922;2023-04-24T02:18:38;10.60;99.90
28524;DHT22;15734;50.904;6.922;2023-04-24T02:21:04;10.50;99.90
28524;DHT22;15734;50.904;6.922;2023-04-24T02:23:29;10.30;99.90
28524;DHT22;15734;50.904;6.922;2023-04-24T02:25:55;10.30;99.90
28524;DHT22;15734;50.904;6.922;2023-04-24T02:28:21;10.30;99.90
28524;DHT22;15734;50.904;6.922;2023-04-24T02:30:46;10.20;99.90
28524;DHT22;15734;50.904;6.922;2023-04-24T02:33:11;10.20;99.90
28524;DHT22;15734;50.904;6.922;2023-04-24T02:35:37;10.20;99.90
28524;DHT22;15734;50.904;6.922;2023-04-24T02:38:03;10.20;99.90
28524;DHT22;15734;50.904;6.922;2023-04-24T02:40:29;10.10;99.90
28524;DHT22;15734;50.904;6.922;2023-04-24T02:42:54;10.10;99.90
28524;DHT22;15734;50.904;6.922;2023-04-24T02:45:20;10.10;99.90
28524;DHT22;15734;50.904;6.922;2023-04-24T02:47:45;10.10;99.90
28524;DHT22;15734;50.904;6.922;2023-04-24T02:50:10;10.10;99.90
28524;DHT22;15734;50.904;6.922;2023-04-24T02:52:36;10.20;99.90
28524;DHT22;15734;50.904;6.922;2023-04-24T02:55:02;10.20;99.90
28524;DHT22;15734;50.904;6.922;2023-04-24T02:57:27;10.20;99.90
28524;DHT22;15734;50.904;6.922;2023-04-24T02:59:52;10.20;99.90
28524;DHT22;15734;50.904;6.922;2023-04-24T03:02:18;10.20;99.90
28524;DHT22;15734;50.904;6.922;2023-04-24T03:04:44;10.20;99.90
28524;DHT22;15734;50.904;6.922;2023-04-24T03:07:09;10.30;99.90
28524;DHT22;15734;50.904;6.922;2023-04-24T03:09:34;10.30;99.90
28524;DHT22;15734;50.904;6.922;2023-04-24T03:12:00;10.30;99.90
28524;DHT22;15734;50.904;6.922;2023-04-24T03:14:25;10.30;99.90
28524;DHT22;15734;50.904;6.922;2023-04-24T03:16:51;10.20;99.90
28524;DHT22;15734;50.904;6.922;2023-04-24T03:19:16;10.20;99.90
28524;DHT22;15734;50.904;6.922;2023-04-24T03:21:42;10.10;99.90
28524;DHT22;15734;50.904;6.922;2023-04-24T03:24:07;10.10;99.90
28524;DHT22;15734;50.904;6.922;2023-04-24T03:26:33;10.10;99.90
28524;DHT22;15734;50.904;6.922;2023-04-24T03:28:59;10.00;99.90
28524;DHT22;15734;50.904;6.922;2023-04-24T03:31:24;9.90;99.90
28524;DHT22;15734;50.904;6.922;2023-04-24T03:33:50;9.90;99.90
28524;DHT22;15734;50.904;6.922;2023-04-24T03:36:16;9.90;99.90
28524;DHT22;15734;50.904;6.922;2023-04-24T03:38:42;9.90;99.90
28524;DHT22;15734;50.904;6.922;2023-04-24T03:41:07;9.80;99.90
28524;DHT22;15734;50.904;6.922;2023-04-24T03:43:33;9.80;99.90
28524;DHT22;15734;50.904;6.922;2023-04-24T03:45:59;9.80;99.90
28524;DHT22;15734;50.904;6.922;2023-04-24T03:48:25;9.70;99.90
28524;DHT22;15734;50.904;6.922;2023-04-24T03:50:50;9.70;99.90
28524;DHT22;15734;50.904;6.922;2023-04-24T03:53:16;9.70;99.90
28524;DHT22;15734;50.904;6.922;2023-04-24T03:55:41;9.60;99.90
28524;DHT22;15734;50.904;6.922;2023-04-24T03:58:07;9.60;99.90
28524;DHT22;15734;50.904;6.922;2023-04-24T04:00:32;9.50;99.90
28524;DHT22;15734;50.904;6.922;2023-04-24T04:02:58;9.60;99.90
28524;DHT22;15734;50.904;6.922;2023-04-24T04:05:24;9.60;99.90
28524;DHT22;15734;50.904;6.922;2023-04-24T04:07:49;9.70;99.90
28524;DHT22;15734;50.904;6.922;2023-04-24T04:10:15;9.70;99.90
28524;DHT22;15734;50.904;6.922;2023-04-24T04:12:40;9.70;99.90
28524;DHT22;15734;50.904;6.922;2023-04-24T04:15:06;9.80;99.90
28524;DHT22;15734;50.904;6.922;2023-04-24T04:17:32;9.80;99.90
28524;DHT22;15734;50.904;6.922;2023-04-24T04:19:57;9.80;99.90
28524;DHT22;15734;50.904;6.922;2023-04-24T04:22:23;9.70;99.90
28524;DHT22;15734;50.904;6.922;2023-04-24T04:24:48;9.70;99.90
28524;DHT22;15734;50.904;6.922;2023-04-24T04:27:15;9.70;99.90
28524;DHT22;15734;50.904;6.922;2023-04-24T04:29:41;9.70;99.90
28524;DHT22;15734;50.904;6.922;2023-04-24T04:32:07;9.70;99.90
28524;DHT22;15734;50.904;6.922;2023-04-24T04:34:32;9.80;99.90
28524;DHT22;15734;50.904;6.922;2023-04-24T04:36:58;9.80;99.90
28524;DHT22;15734;50.904;6.922;2023-04-24T04:39:26;9.90;99.90
28524;DHT22;15734;50.904;6.922;2023-04-24T04:41:53;9.90;99.90
28524;DHT22;15734;50.904;6.922;2023-04-24T04:44:19;9.80;99.90
28524;DHT22;15734;50.904;6.922;2023-04-24T04:46:44;9.80;99.90
28524;DHT22;15734;50.904;6.922;2023-04-24T04:49:10;9.80;99.90
28524;DHT22;15734;50.904;6.922;2023-04-24T04:51:36;9.80;99.90
28524;DHT22;15734;50.904;6.922;2023-04-24T04:54:01;9.90;99.90
28524;DHT22;15734;50.904;6.922;2023-04-24T04:56:27;9.90;99.90
28524;DHT22;15734;50.904;6.922;2023-04-24T04:58:52;9.90;99.90
28524;DHT22;15734;50.904;6.922;2023-04-24T05:01:18;9.90;99.90
28524;DHT22;15734;50.904;6.922;2023-04-24T05:03:43;10.00;99.90
28524;DHT22;15734;50.904;6.922;2023-04-24T05:06:09;10.00;99.90
28524;DHT22;15734;50.904;6.922;2023-04-24T05:08:35;10.00;99.90
28524;DHT22;15734;50.904;6.922;2023-04-24T05:11:00;10.00;99.90
28524;DHT22;15734;50.904;6.922;2023-04-24T05:13:26;10.00;99.90
28524;DHT22;15734;50.904;6.922;2023-04-24T05:15:51;10.00;99.90
28524;DHT22;15734;50.904;6.922;2023-04-24T05:18:17;10.00;99.90
28524;DHT22;15734;50.904;6.922;2023-04-24T05:20:42;10.00;99.90
28524;DHT22;15734;50.904;6.922;2023-04-24T05:23:09;10.00;99.90
28524;DHT22;15734;50.904;6.922;2023-04-24T05:25:35;10.00;99.90
28524;DHT22;15734;50.904;6.922;2023-04-24T05:28:01;10.00;99.90
28524;DHT22;15734;50.904;6.922;2023-04-24T05:30:27;10.00;99.90
28524;DHT22;15734;50.904;6.922;2023-04-24T05:32:52;10.00;99.90
28524;DHT22;15734;50.904;6.922;2023-04-24T05:35:17;10.00;99.90
28524;DHT22;15734;50.904;6.922;2023-04-24T05:37:44;10.00;99.90
28524;DHT22;15734;50.904;6.922;2023-04-24T05:40:09;10.00;99.90
28524;DHT22;15734;50.904;6.922;2023-04-24T05:42:35;10.00;99.90
28524;DHT22;15734;50.904;6.922;2023-04-24T05:45:01;10.00;99.90
28524;DHT22;15734;50.904;6.922;2023-04-24T05:47:26;10.00;99.90
28524;DHT22;15734;50.904;6.922;2023-04-24T05:49:52;10.00;99.90
28524;DHT22;15734;50.904;6.922;2023-04-24T05:52:18;10.10;99.90
28524;DHT22;15734;50.904;6.922;2023-04-24T05:54:44;10.00;99.90
28524;DHT22;15734;50.904;6.922;2023-04-24T05:57:09;10.00;99.90
28524;DHT22;15734;50.904;6.922;2023-04-24T05:59:36;10.00;99.90
28524;DHT22;15734;50.904;6.922;2023-04-24T06:02:01;10.10;99.90
28524;DHT22;15734;50.904;6.922;2023-04-24T06:04:27;10.10;99.90
28524;DHT22;15734;50.904;6.922;2023-04-24T06:06:52;10.10;99.90
28524;DHT22;15734;50.904;6.922;2023-04-24T06:09:22;10.10;99.90
28524;DHT22;15734;50.904;6.922;2023-04-24T06:11:48;10.10;99.90
28524;DHT22;15734;50.904;6.922;2023-04-24T06:14:14;10.10;99.90
28524;DHT22;15734;50.904;6.922;2023-04-24T06:16:41;10.00;99.90
28524;DHT22;15734;50.904;6.922;2023-04-24T06:19:07;10.10;99.90
28524;DHT22;15734;50.904;6.922;2023-04-24T06:21:32;10.10;99.90
28524;DHT22;15734;50.904;6.922;2023-04-24T06:23:58;10.10;99.90
28524;DHT22;15734;50.904;6.922;2023-04-24T06:26:23;10.10;99.90
28524;DHT22;15734;50.904;6.922;2023-04-24T06:28:50;10.00;99.90
28524;DHT22;15734;50.904;6.922;2023-04-24T06:31:16;9.90;99.90
28524;DHT22;15734;50.904;6.922;2023-04-24T06:33:42;9.90;99.90
28524;DHT22;15734;50.904;6.922;2023-04-24T06:36:08;9.90;99.90
28524;DHT22;15734;50.904;6.922;2023-04-24T06:38:33;9.90;99.90
28524;DHT22;15734;50.904;6.922;2023-04-24T06:40:59;9.80;99.90
28524;DHT22;15734;50.904;6.922;2023-04-24T06:43:24;9.70;99.90
28524;DHT22;15734;50.904;6.922;2023-04-24T06:45:50;9.60;99.90
28524;DHT22;15734;50.904;6.922;2023-04-24T06:48:16;9.50;99.90
28524;DHT22;15734;50.904;6.922;2023-04-24T06:50:41;9.50;99.90
28524;DHT22;15734;50.904;6.922;2023-04-24T06:53:07;9.40;99.90
28524;DHT22;15734;50.904;6.922;2023-04-24T06:55:32;9.30;99.90
28524;DHT22;15734;50.904;6.922;2023-04-24T06:57:57;9.30;99.90
28524;DHT22;15734;50.904;6.922;2023-04-24T07:00:23;9.30;99.90
28524;DHT22;15734;50.904;6.922;2023-04-24T07:02:49;9.20;99.90
28524;DHT22;15734;50.904;6.922;2023-04-24T07:05:15;9.20;99.90
28524;DHT22;15734;50.904;6.922;2023-04-24T07:07:40;9.10;99.90
28524;DHT22;15734;50.904;6.922;2023-04-24T07:10:08;9.10;99.90
28524;DHT22;15734;50.904;6.922;2023-04-24T07:12:33;9.10;99.90
28524;DHT22;15734;50.904;6.922;2023-04-24T07:14:59;9.10;99.90
28524;DHT22;15734;50.904;6.922;2023-04-24T07:17:25;9.10;99.90
28524;DHT22;15734;50.904;6.922;2023-04-24T07:19:51;9.10;99.90
28524;DHT22;15734;50.904;6.922;2023-04-24T07:22:16;9.10;99.90
28524;DHT22;15734;50.904;6.922;2023-04-24T07:24:43;9.00;99.90
28524;DHT22;15734;50.904;6.922;2023-04-24T07:27:08;9.10;99.90
28524;DHT22;15734;50.904;6.922;2023-04-24T07:29:34;9.00;99.90
28524;DHT22;15734;50.904;6.922;2023-04-24T07:32:00;8.90;99.90
28524;DHT22;15734;50.904;6.922;2023-04-24T07:34:26;9.00;99.90
28524;DHT22;15734;50.904;6.922;2023-04-24T07:36:51;8.80;99.90
28524;DHT22;15734;50.904;6.922;2023-04-24T07:39:17;8.80;99.90
28524;DHT22;15734;50.904;6.922;2023-04-24T07:41:42;8.80;99.90
28524;DHT22;15734;50.904;6.922;2023-04-24T07:44:08;8.70;99.90
28524;DHT22;15734;50.904;6.922;2023-04-24T07:46:33;8.60;99.90
28524;DHT22;15734;50.904;6.922;2023-04-24T07:48:59;8.60;99.90
28524;DHT22;15734;50.904;6.922;2023-04-24T07:51:26;8.50;99.90
28524;DHT22;15734;50.904;6.922;2023-04-24T07:53:53;8.40;99.90
28524;DHT22;15734;50.904;6.922;2023-04-24T07:56:20;8.30;99.90
28524;DHT22;15734;50.904;6.922;2023-04-24T07:58:45;8.20;99.90
28524;DHT22;15734;50.904;6.922;2023-04-24T08:01:11;8.10;99.90
28524;DHT22;15734;50.904;6.922;2023-04-24T08:03:36;8.00;99.90
28524;DHT22;15734;50.904;6.922;2023-04-24T08:06:02;8.00;99.90
28524;DHT22;15734;50.904;6.922;2023-04-24T08:08:27;8.00;99.90
28524;DHT22;15734;50.904;6.922;2023-04-24T08:10:53;7.90;99.90
28524;DHT22;15734;50.904;6.922;2023-04-24T08:13:18;7.90;99.90
28524;DHT22;15734;50.904;6.922;2023-04-24T08:15:44;7.90;99.90
28524;DHT22;15734;50.904;6.922;2023-04-24T08:18:10;7.90;99.90
28524;DHT22;15734;50.904;6.922;2023-04-24T08:20:37;7.90;99.90
28524;DHT22;15734;50.904;6.922;2023-04-24T08:23:03;7.80;99.90
28524;DHT22;15734;50.904;6.922;2023-04-24T08:25:28;7.80;99.90
28524;DHT22;15734;50.904;6.922;2023-04-24T08:27:54;7.80;99.90
28524;DHT22;15734;50.904;6.922;2023-04-24T08:30:19;7.70;99.90
28524;DHT22;15734;50.904;6.922;2023-04-24T08:32:45;7.60;99.90
28524;DHT22;15734;50.904;6.922;2023-04-24T08:35:11;7.40;99.90
28524;DHT22;15734;50.904;6.922;2023-04-24T08:37:36;7.30;99.90
28524;DHT22;15734;50.904;6.922;2023-04-24T08:40:06;7.30;99.90
28524;DHT22;15734;50.904;6.922;2023-04-24T08:42:32;7.30;99.90
28524;DHT22;15734;50.904;6.922;2023-04-24T08:44:59;7.20;99.90
28524;DHT22;15734;50.904;6.922;2023-04-24T08:47:24;7.30;99.90
28524;DHT22;15734;50.904;6.922;2023-04-24T08:49:51;7.30;99.90
28524;DHT22;15734;50.904;6.922;2023-04-24T08:52:18;7.30;99.90
28524;DHT22;15734;50.904;6.922;2023-04-24T08:54:44;7.30;99.90
28524;DHT22;15734;50.904;6.922;2023-04-24T08:57:11;7.30;99.90
28524;DHT22;15734;50.904;6.922;2023-04-24T08:59:38;7.30;99.90
28524;DHT22;15734;50.904;6.922;2023-04-24T09:02:04;7.40;99.90
28524;DHT22;15734;50.904;6.922;2023-04-24T09:04:30;7.40;99.90
28524;DHT22;15734;50.904;6.922;2023-04-24T09:06:56;7.40;99.90
28524;DHT22;15734;50.904;6.922;2023-04-24T09:09:22;7.40;99.90
28524;DHT22;15734;50.904;6.922;2023-04-24T09:11:48;7.50;99.90
28524;DHT22;15734;50.904;6.922;2023-04-24T09:14:14;7.50;99.90
28524;DHT22;15734;50.904;6.922;2023-04-24T09:16:40;7.50;99.90
28524;DHT22;15734;50.904;6.922;2023-04-24T09:19:06;7.50;99.90
28524;DHT22;15734;50.904;6.922;2023-04-24T09:21:32;7.60;99.90
28524;DHT22;15734;50.904;6.922;2023-04-24T09:23:58;7.60;99.90
28524;DHT22;15734;50.904;6.922;2023-04-24T09:26:30;7.70;99.90
28524;DHT22;15734;50.904;6.922;2023-04-24T09:28:59;7.70;99.90
28524;DHT22;15734;50.904;6.922;2023-04-24T09:31:26;7.80;99.90
28524;DHT22;15734;50.904;6.922;2023-04-24T09:36:31;7.90;99.90
28524;DHT22;15734;50.904;6.922;2023-04-24T09:39:02;7.90;99.90
28524;DHT22;15734;50.904;6.922;2023-04-24T09:41:29;8.00;99.90
28524;DHT22;15734;50.904;6.922;2023-04-24T09:43:55;8.00;99.90
28524;DHT22;15734;50.904;6.922;2023-04-24T09:46:28;8.10;99.90
28524;DHT22;15734;50.904;6.922;2023-04-24T09:48:54;8.10;99.90
28524;DHT22;15734;50.904;6.922;2023-04-24T09:51:19;8.10;99.90
28524;DHT22;15734;50.904;6.922;2023-04-24T09:53:57;8.20;99.90
28524;DHT22;15734;50.904;6.922;2023-04-24T09:56:23;8.30;99.90
28524;DHT22;15734;50.904;6.922;2023-04-24T09:58:50;8.30;99.90
28524;DHT22;15734;50.904;6.922;2023-04-24T10:01:15;8.40;99.90
28524;DHT22;15734;50.904;6.922;2023-04-24T10:03:41;8.40;99.90
28524;DHT22;15734;50.904;6.922;2023-04-24T10:06:07;8.50;99.90
28524;DHT22;15734;50.904;6.922;2023-04-24T10:08:36;8.60;99.90
28524;DHT22;15734;50.904;6.922;2023-04-24T10:11:02;8.60;99.90
28524;DHT22;15734;50.904;6.922;2023-04-24T10:13:28;8.60;99.90
28524;DHT22;15734;50.904;6.922;2023-04-24T10:15:54;8.60;99.90
28524;DHT22;15734;50.904;6.922;2023-04-24T10:18:20;8.70;99.90
28524;DHT22;15734;50.904;6.922;2023-04-24T10:20:46;8.80;99.90
28524;DHT22;15734;50.904;6.922;2023-04-24T10:23:12;8.80;99.90
28524;DHT22;15734;50.904;6.922;2023-04-24T10:25:37;8.80;99.90
28524;DHT22;15734;50.904;6.922;2023-04-24T10:28:03;8.80;99.90
28524;DHT22;15734;50.904;6.922;2023-04-24T10:30:30;8.90;99.90
28524;DHT22;15734;50.904;6.922;2023-04-24T10:32:56;9.00;99.90
28524;DHT22;15734;50.904;6.922;2023-04-24T10:35:22;9.00;99.90
28524;DHT22;15734;50.904;6.922;2023-04-24T10:37:50;9.10;99.90
28524;DHT22;15734;50.904;6.922;2023-04-24T10:40:19;9.10;99.90
28524;DHT22;15734;50.904;6.922;2023-04-24T10:42:51;9.10;99.90
28524;DHT22;15734;50.904;6.922;2023-04-24T10:45:18;9.10;99.90
28524;DHT22;15734;50.904;6.922;2023-04-24T10:50:21;9.30;99.90
28524;DHT22;15734;50.904;6.922;2023-04-24T10:52:46;9.40;99.90
28524;DHT22;15734;50.904;6.922;2023-04-24T10:55:13;9.60;99.90
28524;DHT22;15734;50.904;6.922;2023-04-24T10:57:39;9.70;99.90
28524;DHT22;15734;50.904;6.922;2023-04-24T11:00:20;9.70;99.90
28524;DHT22;15734;50.904;6.922;2023-04-24T11:02:46;9.80;99.90
28524;DHT22;15734;50.904;6.922;2023-04-24T11:05:17;9.90;99.90
28524;DHT22;15734;50.904;6.922;2023-04-24T11:10:27;9.60;99.90
28524;DHT22;15734;50.904;6.922;2023-04-24T11:12:53;9.60;99.90
28524;DHT22;15734;50.904;6.922;2023-04-24T11:15:18;9.70;99.90
28524;DHT22;15734;50.904;6.922;2023-04-24T11:17:45;9.70;99.90
28524;DHT22;15734;50.904;6.922;2023-04-24T11:20:11;9.80;99.90
28524;DHT22;15734;50.904;6.922;2023-04-24T11:22:37;9.90;99.90
28524;DHT22;15734;50.904;6.922;2023-04-24T11:25:04;9.80;99.90
28524;DHT22;15734;50.904;6.922;2023-04-24T11:27:31;9.80;99.90
28524;DHT22;15734;50.904;6.922;2023-04-24T11:32:23;9.80;99.90
28524;DHT22;15734;50.904;6.922;2023-04-24T11:34:49;9.70;99.90
28524;DHT22;15734;50.904;6.922;2023-04-24T11:37:15;9.70;99.90
28524;DHT22;15734;50.904;6.922;2023-04-24T11:39:41;9.60;99.90
28524;DHT22;15734;50.904;6.922;2023-04-24T11:42:06;9.60;99.90
28524;DHT22;15734;50.904;6.922;2023-04-24T11:44:35;9.70;99.90
28524;DHT22;15734;50.904;6.922;2023-04-24T11:47:04;9.80;99.90
28524;DHT22;15734;50.904;6.922;2023-04-24T11:49:30;9.90;99.90
28524;DHT22;15734;50.904;6.922;2023-04-24T11:51:55;10.00;99.90
28524;DHT22;15734;50.904;6.922;2023-04-24T11:54:21;10.20;99.90
28524;DHT22;15734;50.904;6.922;2023-04-24T11:56:47;10.40;99.90
28524;DHT22;15734;50.904;6.922;2023-04-24T11:59:12;10.30;99.90
28524;DHT22;15734;50.904;6.922;2023-04-24T12:01:44;10.30;99.90
28524;DHT22;15734;50.904;6.922;2023-04-24T12:04:10;10.70;99.90
28524;DHT22;15734;50.904;6.922;2023-04-24T12:06:36;10.90;99.90
28524;DHT22;15734;50.904;6.922;2023-04-24T12:09:01;11.10;99.90
28524;DHT22;15734;50.904;6.922;2023-04-24T12:11:27;11.10;99.90
28524;DHT22;15734;50.904;6.922;2023-04-24T12:13:53;11.20;99.90
28524;DHT22;15734;50.904;6.922;2023-04-24T12:16:18;11.20;99.90
28524;DHT22;15734;50.904;6.922;2023-04-24T12:18:44;11.30;99.90
28524;DHT22;15734;50.904;6.922;2023-04-24T12:21:17;11.30;99.90
28524;DHT22;15734;50.904;6.922;2023-04-24T12:23:43;11.20;99.90
28524;DHT22;15734;50.904;6.922;2023-04-24T12:26:10;11.10;99.90
28524;DHT22;15734;50.904;6.922;2023-04-24T12:40:31;11.00;99.90
28524;DHT22;15734;50.904;6.922;2023-04-24T12:42:57;11.80;99.90
28524;DHT22;15734;50.904;6.922;2023-04-24T12:45:22;12.20;99.90
28524;DHT22;15734;50.904;6.922;2023-04-24T12:47:50;12.50;99.90
28524;DHT22;15734;50.904;6.922;2023-04-24T12:50:16;12.60;99.90
28524;DHT22;15734;50.904;6.922;2023-04-24T12:52:43;12.30;99.90
28524;DHT22;15734;50.904;6.922;2023-04-24T12:55:09;12.10;99.90
28524;DHT22;15734;50.904;6.922;2023-04-24T12:57:37;12.10;99.90
28524;DHT22;15734;50.904;6.922;2023-04-24T13:00:03;12.10;99.90
28524;DHT22;15734;50.904;6.922;2023-04-24T13:02:31;12.30;99.90
28524;DHT22;15734;50.904;6.922;2023-04-24T13:04:57;12.30;99.90
28524;DHT22;15734;50.904;6.922;2023-04-24T13:07:23;12.30;99.90
28524;DHT22;15734;50.904;6.922;2023-04-24T13:09:51;12.60;99.90
28524;DHT22;15734;50.904;6.922;2023-04-24T13:12:16;12.80;99.90
28524;DHT22;15734;50.904;6.922;2023-04-24T13:14:42;13.00;99.90
28524;DHT22;15734;50.904;6.922;2023-04-24T13:17:08;12.80;99.90
28524;DHT22;15734;50.904;6.922;2023-04-24T13:19:39;12.70;99.90
28524;DHT22;15734;50.904;6.922;2023-04-24T13:22:05;13.10;99.90
28524;DHT22;15734;50.904;6.922;2023-04-24T13:24:31;13.00;99.90
28524;DHT22;15734;50.904;6.922;2023-04-24T13:26:57;12.90;99.90
28524;DHT22;15734;50.904;6.922;2023-04-24T13:29:23;12.80;99.90
28524;DHT22;15734;50.904;6.922;2023-04-24T13:31:55;12.60;99.90
28524;DHT22;15734;50.904;6.922;2023-04-24T13:34:22;12.70;99.90
28524;DHT22;15734;50.904;6.922;2023-04-24T13:36:47;13.10;99.90
28524;DHT22;15734;50.904;6.922;2023-04-24T13:39:13;13.40;99.90
28524;DHT22;15734;50.904;6.922;2023-04-24T13:41:39;13.20;99.90
28524;DHT22;15734;50.904;6.922;2023-04-24T13:44:05;13.60;99.90
28524;DHT22;15734;50.904;6.922;2023-04-24T13:46:31;13.80;99.90
28524;DHT22;15734;50.904;6.922;2023-04-24T13:48:57;14.00;99.90
28524;DHT22;15734;50.904;6.922;2023-04-24T13:51:23;13.90;99.90
28524;DHT22;15734;50.904;6.922;2023-04-24T13:53:49;13.70;99.90
28524;DHT22;15734;50.904;6.922;2023-04-24T13:56:14;13.70;99.90
28524;DHT22;15734;50.904;6.922;2023-04-24T13:58:40;13.30;99.90
28524;DHT22;15734;50.904;6.922;2023-04-24T14:01:06;13.00;99.90
28524;DHT22;15734;50.904;6.922;2023-04-24T14:03:33;13.10;99.90
28524;DHT22;15734;50.904;6.922;2023-04-24T14:05:58;13.20;99.90
28524;DHT22;15734;50.904;6.922;2023-04-24T14:08:24;13.40;99.90
28524;DHT22;15734;50.904;6.922;2023-04-24T14:10:50;13.50;99.90
28524;DHT22;15734;50.904;6.922;2023-04-24T14:13:16;13.30;99.90
28524;DHT22;15734;50.904;6.922;2023-04-24T14:15:42;13.20;99.90
28524;DHT22;15734;50.904;6.922;2023-04-24T14:18:07;13.10;99.90
28524;DHT22;15734;50.904;6.922;2023-04-24T14:20:33;12.90;99.90
28524;DHT22;15734;50.904;6.922;2023-04-24T14:22:59;12.80;99.90
28524;DHT22;15734;50.904;6.922;2023-04-24T14:25:25;12.70;99.90
28524;DHT22;15734;50.904;6.922;2023-04-24T14:27:50;12.50;99.90
28524;DHT22;15734;50.904;6.922;2023-04-24T14:30:16;12.70;99.90
28524;DHT22;15734;50.904;6.922;2023-04-24T14:32:42;12.80;99.90
28524;DHT22;15734;50.904;6.922;2023-04-24T14:35:08;13.30;99.90
28524;DHT22;15734;50.904;6.922;2023-04-24T14:37:34;13.50;99.90
28524;DHT22;15734;50.904;6.922;2023-04-24T14:39:59;14.00;99.90
28524;DHT22;15734;50.904;6.922;2023-04-24T14:42:25;14.20;99.90
28524;DHT22;15734;50.904;6.922;2023-04-24T14:44:51;14.20;99.90
28524;DHT22;15734;50.904;6.922;2023-04-24T14:47:16;14.30;99.90
28524;DHT22;15734;50.904;6.922;2023-04-24T14:49:47;14.50;99.90
28524;DHT22;15734;50.904;6.922;2023-04-24T14:52:13;14.20;99.90
28524;DHT22;15734;50.904;6.922;2023-04-24T14:54:38;14.00;99.90
28524;DHT22;15734;50.904;6.922;2023-04-24T14:57:04;14.20;99.90
28524;DHT22;15734;50.904;6.922;2023-04-24T14:59:29;14.40;99.90
28524;DHT22;15734;50.904;6.922;2023-04-24T15:01:56;14.40;99.90
28524;DHT22;15734;50.904;6.922;2023-04-24T15:04:26;14.50;99.90
28524;DHT22;15734;50.904;6.922;2023-04-24T15:06:53;14.20;99.90
28524;DHT22;15734;50.904;6.922;2023-04-24T15:09:19;13.80;99.90
28524;DHT22;15734;50.904;6.922;2023-04-24T15:11:45;13.80;99.90
28524;DHT22;15734;50.904;6.922;2023-04-24T15:14:11;13.80;99.90
28524;DHT22;15734;50.904;6.922;2023-04-24T15:16:37;14.00;99.90
28524;DHT22;15734;50.904;6.922;2023-04-24T15:19:02;14.00;99.90
28524;DHT22;15734;50.904;6.922;2023-04-24T15:21:28;13.60;99.90
28524;DHT22;15734;50.904;6.922;2023-04-24T15:23:53;13.60;99.90
28524;DHT22;15734;50.904;6.922;2023-04-24T15:26:19;13.70;99.90
28524;DHT22;15734;50.904;6.922;2023-04-24T15:28:45;13.60;99.90
28524;DHT22;15734;50.904;6.922;2023-04-24T15:31:12;13.80;99.90
28524;DHT22;15734;50.904;6.922;2023-04-24T15:33:37;14.00;99.90
28524;DHT22;15734;50.904;6.922;2023-04-24T15:36:03;13.80;99.90
28524;DHT22;15734;50.904;6.922;2023-04-24T15:38:29;13.50;99.90
28524;DHT22;15734;50.904;6.922;2023-04-24T15:40:54;13.40;99.90
28524;DHT22;15734;50.904;6.922;2023-04-24T15:43:20;13.40;99.90
28524;DHT22;15734;50.904;6.922;2023-04-24T15:45:45;13.60;99.90
28524;DHT22;15734;50.904;6.922;2023-04-24T15:48:11;13.80;99.90
28524;DHT22;15734;50.904;6.922;2023-04-24T15:50:36;13.80;99.90